createdAt,value
2023-04-23T00:18:20.398Z,20.0
2023-04-23T00:48:20.366Z,20.0
2023-04-23T01:18:20.382Z,20.0
2023-04-23T01:48:20.407Z,20.0
2023-04-23T02:18:20.442Z,19.9
2023-04-23T02:48:20.370Z,19.8
2023-04-23T03:18:20.388Z,19.8
2023-04-23T03:48:20.392Z,19.8
2023-04-23T04:18:20.452Z,19.7
2023-04-23T04:48:20.350Z,19.8
2023-04-23T05:18:20.366Z,20.0
2023-04-23T05:48:20.471Z,20.0
2023-04-23T06:18:20.090Z,20.0
2023-04-23T06:48:20.361Z,20.2
2023-04-23T07:18:20.362Z,20.3
2023-04-23T07:48:20.381Z,20.5
2023-04-23T08:18:20.361Z,20.8
2023-04-23T08:48:20.408Z,21.0
2023-04-23T09:18:20.405Z,21.1
2023-04-23T09:48:20.348Z,21.2
2023-04-23T10:18:20.352Z,21.1
2023-04-23T10:48:20.395Z,21.1
2023-04-23T11:18:20.137Z,21.1
2023-04-23T11:48:20.356Z,21.0
2023-04-23T12:18:20.365Z,20.8
2023-04-23T12:48:20.352Z,20.8
2023-04-23T13:18:20.377Z,20.7
2023-04-23T13:48:20.356Z,20.6
2023-04-23T14:18:20.345Z,20.5
2023-04-23T14:48:20.430Z,20.5
2023-04-23T15:18:20.327Z,20.5
2023-04-23T15:48:20.307Z,20.4
2023-04-23T16:18:20.205Z,20.4
2023-04-23T16:48:20.322Z,20.3
2023-04-23T17:18:20.452Z,20.3
2023-04-23T17:48:20.364Z,20.3
2023-04-23T18:18:20.015Z,20.3
2023-04-23T18:48:20.305Z,20.2
2023-04-23T19:18:20.322Z,20.2
2023-04-23T19:48:20.292Z,20.1
2023-04-23T20:18:20.286Z,20.1
2023-04-23T20:48:20.264Z,20.1
2023-04-23T21:18:20.301Z,20.1
2023-04-23T21:48:20.312Z,20.0
2023-04-23T22:18:20.283Z,20.0
2023-04-23T22:48:20.277Z,20.0
2023-04-23T23:18:20.269Z,20.0
2023-04-23T23:48:20.299Z,19.9
